sensor_id;sensor_type;location;lat;lon;timestamp;temperature;humidity
49861;DHT22;35761;48.826;9.238;2022-08-05T00:00:15;29.50;26.30
49861;DHT22;35761;48.826;9.238;2022-08-05T00:02:45;29.50;26.40
49861;DHT22;35761;48.826;9.238;2022-08-05T00:05:19;29.40;26.60
49861;DHT22;35761;48.826;9.238;2022-08-05T00:08:08;29.30;27.10
49861;DHT22;35761;48.826;9.238;2022-08-05T00:10:56;29.10;27.70
49861;DHT22;35761;48.826;9.238;2022-08-05T00:13:29;29.10;28.10
49861;DHT22;35761;48.826;9.238;2022-08-05T00:16:07;29.10;28.00
49861;DHT22;35761;48.826;9.238;2022-08-05T00:18:40;29.10;28.20
49861;DHT22;35761;48.826;9.238;2022-08-05T00:21:12;29.00;28.20
49861;DHT22;35761;48.826;9.238;2022-08-05T00:23:42;29.00;28.40
49861;DHT22;35761;48.826;9.238;2022-08-05T00:26:32;28.90;27.70
49861;DHT22;35761;48.826;9.238;2022-08-05T00:29:00;28.90;27.80
49861;DHT22;35761;48.826;9.238;2022-08-05T00:31:29;28.80;28.00
49861;DHT22;35761;48.826;9.238;2022-08-05T00:34:17;28.70;29.00
49861;DHT22;35761;48.826;9.238;2022-08-05T00:37:07;28.50;29.20
49861;DHT22;35761;48.826;9.238;2022-08-05T00:39:40;28.30;29.70
49861;DHT22;35761;48.826;9.238;2022-08-05T00:42:30;28.20;29.90
49861;DHT22;35761;48.826;9.238;2022-08-05T00:44:59;28.20;30.10
49861;DHT22;35761;48.826;9.238;2022-08-05T00:47:29;28.10;30.30
49861;DHT22;35761;48.826;9.238;2022-08-05T00:50:18;27.90;30.70
49861;DHT22;35761;48.826;9.238;2022-08-05T00:52:52;27.80;31.30
49861;DHT22;35761;48.826;9.238;2022-08-05T00:55:21;27.60;31.80
49861;DHT22;35761;48.826;9.238;2022-08-05T00:58:08;27.50;32.30
49861;DHT22;35761;48.826;9.238;2022-08-05T01:00:38;27.50;32.10
49861;DHT22;35761;48.826;9.238;2022-08-05T01:03:09;27.60;31.90
49861;DHT22;35761;48.826;9.238;2022-08-05T01:05:49;27.60;30.80
49861;DHT22;35761;48.826;9.238;2022-08-05T01:08:22;27.60;28.40
49861;DHT22;35761;48.826;9.238;2022-08-05T01:11:12;27.60;25.00
49861;DHT22;35761;48.826;9.238;2022-08-05T01:14:02;27.60;23.10
49861;DHT22;35761;48.826;9.238;2022-08-05T01:16:41;27.60;22.00
49861;DHT22;35761;48.826;9.238;2022-08-05T01:19:22;27.50;22.10
49861;DHT22;35761;48.826;9.238;2022-08-05T01:22:29;27.40;22.10
49861;DHT22;35761;48.826;9.238;2022-08-05T01:25:23;27.30;22.60
49861;DHT22;35761;48.826;9.238;2022-08-05T01:28:23;27.30;23.40
49861;DHT22;35761;48.826;9.238;2022-08-05T01:30:56;27.30;23.00
49861;DHT22;35761;48.826;9.238;2022-08-05T01:33:33;27.20;23.30
49861;DHT22;35761;48.826;9.238;2022-08-05T01:36:05;27.20;23.70
49861;DHT22;35761;48.826;9.238;2022-08-05T01:38:43;27.20;23.80
49861;DHT22;35761;48.826;9.238;2022-08-05T01:41:17;27.20;24.10
49861;DHT22;35761;48.826;9.238;2022-08-05T01:43:53;27.10;24.30
49861;DHT22;35761;48.826;9.238;2022-08-05T01:46:23;27.20;24.50
49861;DHT22;35761;48.826;9.238;2022-08-05T01:49:15;27.20;24.70
49861;DHT22;35761;48.826;9.238;2022-08-05T01:51:53;27.10;24.90
49861;DHT22;35761;48.826;9.238;2022-08-05T01:54:25;27.10;25.10
49861;DHT22;35761;48.826;9.238;2022-08-05T01:57:00;27.00;25.50
49861;DHT22;35761;48.826;9.238;2022-08-05T01:59:54;27.00;25.70
49861;DHT22;35761;48.826;9.238;2022-08-05T02:02:27;27.00;25.90
49861;DHT22;35761;48.826;9.238;2022-08-05T02:05:00;26.90;25.70
49861;DHT22;35761;48.826;9.238;2022-08-05T02:07:38;26.80;26.00
49861;DHT22;35761;48.826;9.238;2022-08-05T02:10:30;26.80;26.30
49861;DHT22;35761;48.826;9.238;2022-08-05T02:13:07;26.80;26.50
49861;DHT22;35761;48.826;9.238;2022-08-05T02:15:46;26.70;26.90
49861;DHT22;35761;48.826;9.238;2022-08-05T02:18:22;26.70;27.20
49861;DHT22;35761;48.826;9.238;2022-08-05T02:21:04;26.60;27.60
49861;DHT22;35761;48.826;9.238;2022-08-05T02:23:44;26.60;27.80
49861;DHT22;35761;48.826;9.238;2022-08-05T02:26:18;26.60;27.90
49861;DHT22;35761;48.826;9.238;2022-08-05T02:28:54;26.60;28.10
49861;DHT22;35761;48.826;9.238;2022-08-05T02:31:29;26.60;28.30
49861;DHT22;35761;48.826;9.238;2022-08-05T02:34:03;26.50;28.50
49861;DHT22;35761;48.826;9.238;2022-08-05T02:36:38;26.40;28.50
49861;DHT22;35761;48.826;9.238;2022-08-05T02:39:09;26.40;28.70
49861;DHT22;35761;48.826;9.238;2022-08-05T02:41:40;26.40;29.30
49861;DHT22;35761;48.826;9.238;2022-08-05T02:44:28;26.40;28.90
49861;DHT22;35761;48.826;9.238;2022-08-05T02:46:59;26.40;29.10
49861;DHT22;35761;48.826;9.238;2022-08-05T02:49:33;26.30;29.20
49861;DHT22;35761;48.826;9.238;2022-08-05T02:52:09;26.30;29.50
49861;DHT22;35761;48.826;9.238;2022-08-05T02:54:52;26.30;29.60
49861;DHT22;35761;48.826;9.238;2022-08-05T02:57:23;26.20;29.80
49861;DHT22;35761;48.826;9.238;2022-08-05T03:00:12;26.10;30.10
49861;DHT22;35761;48.826;9.238;2022-08-05T03:02:45;26.10;30.20
49861;DHT22;35761;48.826;9.238;2022-08-05T03:05:17;26.10;30.10
49861;DHT22;35761;48.826;9.238;2022-08-05T03:08:08;25.90;30.20
49861;DHT22;35761;48.826;9.238;2022-08-05T03:10:41;25.80;30.40
49861;DHT22;35761;48.826;9.238;2022-08-05T03:13:30;25.80;30.70
49861;DHT22;35761;48.826;9.238;2022-08-05T03:16:19;25.80;30.90
49861;DHT22;35761;48.826;9.238;2022-08-05T03:18:50;25.80;30.80
49861;DHT22;35761;48.826;9.238;2022-08-05T03:21:18;25.70;31.10
49861;DHT22;35761;48.826;9.238;2022-08-05T03:23:48;25.60;31.50
49861;DHT22;35761;48.826;9.238;2022-08-05T03:26:18;25.60;31.90
49861;DHT22;35761;48.826;9.238;2022-08-05T03:28:58;25.40;32.20
49861;DHT22;35761;48.826;9.238;2022-08-05T03:31:27;25.30;32.50
49861;DHT22;35761;48.826;9.238;2022-08-05T03:34:18;25.30;32.70
49861;DHT22;35761;48.826;9.238;2022-08-05T03:36:50;25.40;32.60
49861;DHT22;35761;48.826;9.238;2022-08-05T03:39:18;25.40;32.70
49861;DHT22;35761;48.826;9.238;2022-08-05T03:41:53;25.40;32.50
49861;DHT22;35761;48.826;9.238;2022-08-05T03:44:22;25.40;32.70
49861;DHT22;35761;48.826;9.238;2022-08-05T03:46:55;25.40;32.70
49861;DHT22;35761;48.826;9.238;2022-08-05T03:49:24;25.30;32.70
49861;DHT22;35761;48.826;9.238;2022-08-05T03:52:18;25.20;33.00
49861;DHT22;35761;48.826;9.238;2022-08-05T03:55:16;25.20;33.30
49861;DHT22;35761;48.826;9.238;2022-08-05T03:58:11;25.20;33.20
49861;DHT22;35761;48.826;9.238;2022-08-05T04:00:43;25.30;33.40
49861;DHT22;35761;48.826;9.238;2022-08-05T04:03:21;25.30;34.00
49861;DHT22;35761;48.826;9.238;2022-08-05T04:05:57;25.30;33.60
49861;DHT22;35761;48.826;9.238;2022-08-05T04:08:26;25.30;33.60
49861;DHT22;35761;48.826;9.238;2022-08-05T04:11:03;25.30;33.70
49861;DHT22;35761;48.826;9.238;2022-08-05T04:13:38;25.30;33.70
49861;DHT22;35761;48.826;9.238;2022-08-05T04:16:17;25.30;33.20
49861;DHT22;35761;48.826;9.238;2022-08-05T04:18:51;25.30;33.50
49861;DHT22;35761;48.826;9.238;2022-08-05T04:21:25;25.30;33.30
49861;DHT22;35761;48.826;9.238;2022-08-05T04:24:14;25.20;33.40
49861;DHT22;35761;48.826;9.238;2022-08-05T04:26:48;25.10;33.50
49861;DHT22;35761;48.826;9.238;2022-08-05T04:29:17;25.10;33.40
49861;DHT22;35761;48.826;9.238;2022-08-05T04:31:45;25.10;33.60
49861;DHT22;35761;48.826;9.238;2022-08-05T04:34:15;25.00;34.00
49861;DHT22;35761;48.826;9.238;2022-08-05T04:37:01;24.80;34.40
49861;DHT22;35761;48.826;9.238;2022-08-05T04:39:30;24.70;34.90
49861;DHT22;35761;48.826;9.238;2022-08-05T04:42:01;24.60;35.00
49861;DHT22;35761;48.826;9.238;2022-08-05T04:44:30;24.70;35.20
49861;DHT22;35761;48.826;9.238;2022-08-05T04:46:59;24.60;35.30
49861;DHT22;35761;48.826;9.238;2022-08-05T04:49:37;24.60;35.40
49861;DHT22;35761;48.826;9.238;2022-08-05T04:52:27;24.60;35.30
49861;DHT22;35761;48.826;9.238;2022-08-05T04:55:00;24.70;35.30
49861;DHT22;35761;48.826;9.238;2022-08-05T04:57:43;24.70;35.40
49861;DHT22;35761;48.826;9.238;2022-08-05T05:00:17;24.70;35.50
49861;DHT22;35761;48.826;9.238;2022-08-05T05:02:49;24.70;35.50
49861;DHT22;35761;48.826;9.238;2022-08-05T05:05:19;24.70;35.60
49861;DHT22;35761;48.826;9.238;2022-08-05T05:08:00;24.80;35.70
49861;DHT22;35761;48.826;9.238;2022-08-05T05:10:31;24.80;35.80
49861;DHT22;35761;48.826;9.238;2022-08-05T05:13:01;24.80;35.90
49861;DHT22;35761;48.826;9.238;2022-08-05T05:15:30;24.70;36.10
49861;DHT22;35761;48.826;9.238;2022-08-05T05:18:20;24.70;36.30
49861;DHT22;35761;48.826;9.238;2022-08-05T05:21:00;24.60;36.40
49861;DHT22;35761;48.826;9.238;2022-08-05T05:23:32;24.70;36.50
49861;DHT22;35761;48.826;9.238;2022-08-05T05:26:21;24.60;36.70
49861;DHT22;35761;48.826;9.238;2022-08-05T05:28:59;24.60;36.70
49861;DHT22;35761;48.826;9.238;2022-08-05T05:31:41;24.70;36.90
49861;DHT22;35761;48.826;9.238;2022-08-05T05:34:12;24.60;37.10
49861;DHT22;35761;48.826;9.238;2022-08-05T05:36:41;24.70;37.20
49861;DHT22;35761;48.826;9.238;2022-08-05T05:39:14;24.70;37.20
49861;DHT22;35761;48.826;9.238;2022-08-05T05:41:45;24.70;37.20
49861;DHT22;35761;48.826;9.238;2022-08-05T05:44:20;24.70;37.20
49861;DHT22;35761;48.826;9.238;2022-08-05T05:47:04;24.70;37.30
49861;DHT22;35761;48.826;9.238;2022-08-05T05:49:48;24.70;37.40
49861;DHT22;35761;48.826;9.238;2022-08-05T05:52:23;24.70;37.50
49861;DHT22;35761;48.826;9.238;2022-08-05T05:54:59;24.70;37.50
49861;DHT22;35761;48.826;9.238;2022-08-05T05:57:40;24.70;37.50
49861;DHT22;35761;48.826;9.238;2022-08-05T06:00:21;24.70;37.20
49861;DHT22;35761;48.826;9.238;2022-08-05T06:02:58;24.70;37.40
49861;DHT22;35761;48.826;9.238;2022-08-05T06:05:27;24.80;36.90
49861;DHT22;35761;48.826;9.238;2022-08-05T06:07:57;24.80;37.80
49861;DHT22;35761;48.826;9.238;2022-08-05T06:10:31;24.80;36.30
49861;DHT22;35761;48.826;9.238;2022-08-05T06:13:02;24.80;36.30
49861;DHT22;35761;48.826;9.238;2022-08-05T06:15:31;24.80;36.00
49861;DHT22;35761;48.826;9.238;2022-08-05T06:18:20;24.80;35.80
49861;DHT22;35761;48.826;9.238;2022-08-05T06:20:58;24.90;35.90
49861;DHT22;35761;48.826;9.238;2022-08-05T06:23:27;24.90;36.10
49861;DHT22;35761;48.826;9.238;2022-08-05T06:26:12;24.90;36.20
49861;DHT22;35761;48.826;9.238;2022-08-05T06:28:49;24.90;36.20
49861;DHT22;35761;48.826;9.238;2022-08-05T06:31:18;25.00;36.10
49861;DHT22;35761;48.826;9.238;2022-08-05T06:33:48;25.00;36.10
49861;DHT22;35761;48.826;9.238;2022-08-05T06:36:35;25.00;36.30
49861;DHT22;35761;48.826;9.238;2022-08-05T06:39:23;25.00;36.00
49861;DHT22;35761;48.826;9.238;2022-08-05T06:41:54;25.00;35.90
49861;DHT22;35761;48.826;9.238;2022-08-05T06:44:25;25.10;35.70
49861;DHT22;35761;48.826;9.238;2022-08-05T06:46:54;25.10;35.70
49861;DHT22;35761;48.826;9.238;2022-08-05T06:49:23;25.10;36.00
49861;DHT22;35761;48.826;9.238;2022-08-05T06:52:12;25.10;35.70
49861;DHT22;35761;48.826;9.238;2022-08-05T06:55:01;25.20;35.60
49861;DHT22;35761;48.826;9.238;2022-08-05T06:57:31;25.20;35.40
49861;DHT22;35761;48.826;9.238;2022-08-05T07:00:20;25.30;35.40
49861;DHT22;35761;48.826;9.238;2022-08-05T07:02:51;25.30;35.30
49861;DHT22;35761;48.826;9.238;2022-08-05T07:05:20;25.40;35.10
49861;DHT22;35761;48.826;9.238;2022-08-05T07:08:04;25.40;34.90
49861;DHT22;35761;48.826;9.238;2022-08-05T07:10:37;25.40;35.00
49861;DHT22;35761;48.826;9.238;2022-08-05T07:13:22;25.40;34.90
49861;DHT22;35761;48.826;9.238;2022-08-05T07:16:26;25.40;34.90
49861;DHT22;35761;48.826;9.238;2022-08-05T07:19:33;25.40;34.70
49861;DHT22;35761;48.826;9.238;2022-08-05T07:22:21;25.40;34.60
49861;DHT22;35761;48.826;9.238;2022-08-05T07:24:57;25.40;34.90
49861;DHT22;35761;48.826;9.238;2022-08-05T07:27:46;25.50;34.80
49861;DHT22;35761;48.826;9.238;2022-08-05T07:30:30;25.50;34.80
49861;DHT22;35761;48.826;9.238;2022-08-05T07:33:01;25.50;35.00
49861;DHT22;35761;48.826;9.238;2022-08-05T07:35:36;25.50;34.40
49861;DHT22;35761;48.826;9.238;2022-08-05T07:38:25;25.60;33.80
49861;DHT22;35761;48.826;9.238;2022-08-05T07:41:02;25.60;33.20
49861;DHT22;35761;48.826;9.238;2022-08-05T07:43:52;25.70;33.40
49861;DHT22;35761;48.826;9.238;2022-08-05T07:46:25;25.70;33.20
49861;DHT22;35761;48.826;9.238;2022-08-05T07:48:56;25.70;33.40
49861;DHT22;35761;48.826;9.238;2022-08-05T07:51:33;25.70;32.80
49861;DHT22;35761;48.826;9.238;2022-08-05T07:54:07;25.80;32.90
49861;DHT22;35761;48.826;9.238;2022-08-05T07:56:38;25.80;32.40
49861;DHT22;35761;48.826;9.238;2022-08-05T07:59:26;25.70;32.50
49861;DHT22;35761;48.826;9.238;2022-08-05T08:02:07;25.80;32.60
49861;DHT22;35761;48.826;9.238;2022-08-05T08:04:46;25.90;32.50
49861;DHT22;35761;48.826;9.238;2022-08-05T08:07:16;25.90;32.80
49861;DHT22;35761;48.826;9.238;2022-08-05T08:09:49;25.90;32.30
49861;DHT22;35761;48.826;9.238;2022-08-05T08:12:21;25.90;31.50
49861;DHT22;35761;48.826;9.238;2022-08-05T08:15:07;25.90;31.30
49861;DHT22;35761;48.826;9.238;2022-08-05T08:17:44;26.00;29.30
49861;DHT22;35761;48.826;9.238;2022-08-05T08:20:19;26.00;29.80
49861;DHT22;35761;48.826;9.238;2022-08-05T08:23:09;26.10;28.80
49861;DHT22;35761;48.826;9.238;2022-08-05T08:25:57;26.10;28.30
49861;DHT22;35761;48.826;9.238;2022-08-05T08:28:31;26.10;27.50
49861;DHT22;35761;48.826;9.238;2022-08-05T08:31:08;26.20;26.80
49861;DHT22;35761;48.826;9.238;2022-08-05T08:33:45;26.20;27.50
49861;DHT22;35761;48.826;9.238;2022-08-05T08:36:18;26.20;26.80
49861;DHT22;35761;48.826;9.238;2022-08-05T08:39:06;26.30;26.60
49861;DHT22;35761;48.826;9.238;2022-08-05T08:41:42;26.30;27.10
49861;DHT22;35761;48.826;9.238;2022-08-05T08:44:18;26.30;27.00
49861;DHT22;35761;48.826;9.238;2022-08-05T08:47:07;26.30;26.80
49861;DHT22;35761;48.826;9.238;2022-08-05T08:49:58;26.40;26.80
49861;DHT22;35761;48.826;9.238;2022-08-05T08:52:49;26.50;26.40
49861;DHT22;35761;48.826;9.238;2022-08-05T08:55:21;26.50;27.10
49861;DHT22;35761;48.826;9.238;2022-08-05T08:58:14;26.50;26.60
49861;DHT22;35761;48.826;9.238;2022-08-05T09:00:42;26.60;26.40
49861;DHT22;35761;48.826;9.238;2022-08-05T09:03:12;26.60;26.40
49861;DHT22;35761;48.826;9.238;2022-08-05T09:05:47;26.60;25.90
49861;DHT22;35761;48.826;9.238;2022-08-05T09:08:36;26.70;26.00
49861;DHT22;35761;48.826;9.238;2022-08-05T09:11:06;26.70;26.10
49861;DHT22;35761;48.826;9.238;2022-08-05T09:13:41;26.80;26.00
49861;DHT22;35761;48.826;9.238;2022-08-05T09:16:30;26.80;25.70
49861;DHT22;35761;48.826;9.238;2022-08-05T09:18:58;26.80;25.70
49861;DHT22;35761;48.826;9.238;2022-08-05T09:21:34;26.90;25.50
49861;DHT22;35761;48.826;9.238;2022-08-05T09:24:22;27.00;25.70
49861;DHT22;35761;48.826;9.238;2022-08-05T09:26:56;26.90;25.50
49861;DHT22;35761;48.826;9.238;2022-08-05T09:29:38;27.00;25.90
49861;DHT22;35761;48.826;9.238;2022-08-05T09:32:14;27.00;26.10
49861;DHT22;35761;48.826;9.238;2022-08-05T09:35:12;27.00;26.20
49861;DHT22;35761;48.826;9.238;2022-08-05T09:37:55;27.10;26.00
49861;DHT22;35761;48.826;9.238;2022-08-05T09:40:44;27.20;25.90
49861;DHT22;35761;48.826;9.238;2022-08-05T09:43:27;27.30;25.30
49861;DHT22;35761;48.826;9.238;2022-08-05T09:46:23;27.30;24.30
49861;DHT22;35761;48.826;9.238;2022-08-05T09:48:55;27.30;24.60
49861;DHT22;35761;48.826;9.238;2022-08-05T09:51:36;27.40;25.10
49861;DHT22;35761;48.826;9.238;2022-08-05T09:54:08;27.40;24.30
49861;DHT22;35761;48.826;9.238;2022-08-05T09:56:42;27.50;24.80
49861;DHT22;35761;48.826;9.238;2022-08-05T09:59:22;27.50;24.90
49861;DHT22;35761;48.826;9.238;2022-08-05T10:01:56;27.50;24.50
49861;DHT22;35761;48.826;9.238;2022-08-05T10:04:34;27.60;24.70
49861;DHT22;35761;48.826;9.238;2022-08-05T10:07:05;27.60;24.50
49861;DHT22;35761;48.826;9.238;2022-08-05T10:09:55;27.70;24.30
49861;DHT22;35761;48.826;9.238;2022-08-05T10:12:46;27.80;23.10
49861;DHT22;35761;48.826;9.238;2022-08-05T10:15:19;27.80;22.80
49861;DHT22;35761;48.826;9.238;2022-08-05T10:18:05;27.80;22.90
49861;DHT22;35761;48.826;9.238;2022-08-05T10:20:40;27.80;23.00
49861;DHT22;35761;48.826;9.238;2022-08-05T10:23:16;27.90;23.40
49861;DHT22;35761;48.826;9.238;2022-08-05T10:26:08;27.90;23.00
49861;DHT22;35761;48.826;9.238;2022-08-05T10:28:41;28.00;23.70
49861;DHT22;35761;48.826;9.238;2022-08-05T10:31:13;28.00;22.90
49861;DHT22;35761;48.826;9.238;2022-08-05T10:34:03;28.00;23.20
49861;DHT22;35761;48.826;9.238;2022-08-05T10:36:35;28.10;22.70
49861;DHT22;35761;48.826;9.238;2022-08-05T10:39:06;28.10;22.60
49861;DHT22;35761;48.826;9.238;2022-08-05T10:41:58;28.30;22.70
49861;DHT22;35761;48.826;9.238;2022-08-05T10:44:30;28.20;23.00
49861;DHT22;35761;48.826;9.238;2022-08-05T10:47:08;28.30;22.90
49861;DHT22;35761;48.826;9.238;2022-08-05T10:50:03;28.30;22.70
49861;DHT22;35761;48.826;9.238;2022-08-05T10:52:55;28.40;23.30
49861;DHT22;35761;48.826;9.238;2022-08-05T10:55:26;28.50;22.10
49861;DHT22;35761;48.826;9.238;2022-08-05T10:58:09;28.50;22.50
49861;DHT22;35761;48.826;9.238;2022-08-05T11:00:45;28.50;22.10
49861;DHT22;35761;48.826;9.238;2022-08-05T11:03:29;28.60;22.50
49861;DHT22;35761;48.826;9.238;2022-08-05T11:06:05;28.70;21.70
49861;DHT22;35761;48.826;9.238;2022-08-05T11:09:12;28.70;21.10
49861;DHT22;35761;48.826;9.238;2022-08-05T11:11:44;28.80;21.00
49861;DHT22;35761;48.826;9.238;2022-08-05T11:14:28;28.80;21.30
49861;DHT22;35761;48.826;9.238;2022-08-05T11:17:27;28.90;21.30
49861;DHT22;35761;48.826;9.238;2022-08-05T11:20:37;28.90;21.30
49861;DHT22;35761;48.826;9.238;2022-08-05T11:23:30;29.00;21.90
49861;DHT22;35761;48.826;9.238;2022-08-05T11:26:24;29.10;21.40
49861;DHT22;35761;48.826;9.238;2022-08-05T11:28:59;29.20;21.30
49861;DHT22;35761;48.826;9.238;2022-08-05T11:31:40;29.10;21.70
49861;DHT22;35761;48.826;9.238;2022-08-05T11:34:37;29.20;20.50
49861;DHT22;35761;48.826;9.238;2022-08-05T11:40:57;29.40;21.00
49861;DHT22;35761;48.826;9.238;2022-08-05T11:43:53;29.40;20.30
49861;DHT22;35761;48.826;9.238;2022-08-05T11:46:35;29.60;20.60
49861;DHT22;35761;48.826;9.238;2022-08-05T11:49:26;29.60;21.40
49861;DHT22;35761;48.826;9.238;2022-08-05T11:52:00;29.80;21.10
49861;DHT22;35761;48.826;9.238;2022-08-05T11:54:38;29.90;20.60
49861;DHT22;35761;48.826;9.238;2022-08-05T11:57:07;30.00;20.80
49861;DHT22;35761;48.826;9.238;2022-08-05T11:59:51;30.10;20.90
49861;DHT22;35761;48.826;9.238;2022-08-05T12:02:24;30.10;20.90
49861;DHT22;35761;48.826;9.238;2022-08-05T12:05:00;30.20;19.80
49861;DHT22;35761;48.826;9.238;2022-08-05T12:07:43;30.30;20.10
49861;DHT22;35761;48.826;9.238;2022-08-05T12:10:35;30.30;19.70
49861;DHT22;35761;48.826;9.238;2022-08-05T12:13:14;30.30;19.50
49861;DHT22;35761;48.826;9.238;2022-08-05T12:16:04;30.50;18.80
49861;DHT22;35761;48.826;9.238;2022-08-05T12:18:42;30.80;18.60
49861;DHT22;35761;48.826;9.238;2022-08-05T12:21:22;31.00;19.70
49861;DHT22;35761;48.826;9.238;2022-08-05T12:24:01;31.40;18.40
49861;DHT22;35761;48.826;9.238;2022-08-05T12:26:35;31.70;18.80
49861;DHT22;35761;48.826;9.238;2022-08-05T12:29:06;31.90;18.90
49861;DHT22;35761;48.826;9.238;2022-08-05T12:31:46;32.00;18.90
49861;DHT22;35761;48.826;9.238;2022-08-05T12:34:22;32.20;19.10
49861;DHT22;35761;48.826;9.238;2022-08-05T12:36:57;32.40;18.70
49861;DHT22;35761;48.826;9.238;2022-08-05T12:39:26;32.60;18.20
49861;DHT22;35761;48.826;9.238;2022-08-05T12:42:09;32.80;17.70
49861;DHT22;35761;48.826;9.238;2022-08-05T12:44:41;33.00;17.90
49861;DHT22;35761;48.826;9.238;2022-08-05T12:47:10;33.20;17.50
49861;DHT22;35761;48.826;9.238;2022-08-05T12:49:45;33.30;17.10
49861;DHT22;35761;48.826;9.238;2022-08-05T12:52:36;33.20;17.20
49861;DHT22;35761;48.826;9.238;2022-08-05T12:55:19;33.20;17.10
49861;DHT22;35761;48.826;9.238;2022-08-05T12:57:52;33.30;17.40
49861;DHT22;35761;48.826;9.238;2022-08-05T13:00:42;33.40;17.40
49861;DHT22;35761;48.826;9.238;2022-08-05T13:03:35;33.70;16.70
49861;DHT22;35761;48.826;9.238;2022-08-05T13:06:14;33.90;16.70
49861;DHT22;35761;48.826;9.238;2022-08-05T13:08:46;34.20;16.90
49861;DHT22;35761;48.826;9.238;2022-08-05T13:11:19;34.40;16.10
49861;DHT22;35761;48.826;9.238;2022-08-05T13:14:20;34.40;15.60
49861;DHT22;35761;48.826;9.238;2022-08-05T13:17:07;34.30;15.50
49861;DHT22;35761;48.826;9.238;2022-08-05T13:19:37;34.40;15.50
49861;DHT22;35761;48.826;9.238;2022-08-05T13:22:21;34.40;15.80
49861;DHT22;35761;48.826;9.238;2022-08-05T13:24:58;34.50;15.00
49861;DHT22;35761;48.826;9.238;2022-08-05T13:27:35;34.60;15.30
49861;DHT22;35761;48.826;9.238;2022-08-05T13:30:07;34.70;14.90
49861;DHT22;35761;48.826;9.238;2022-08-05T13:32:56;34.70;15.10
49861;DHT22;35761;48.826;9.238;2022-08-05T13:35:28;34.80;14.70
49861;DHT22;35761;48.826;9.238;2022-08-05T13:38:18;34.90;14.80
49861;DHT22;35761;48.826;9.238;2022-08-05T13:41:01;35.10;14.10
49861;DHT22;35761;48.826;9.238;2022-08-05T13:43:31;35.10;14.80
49861;DHT22;35761;48.826;9.238;2022-08-05T13:46:20;35.10;14.50
49861;DHT22;35761;48.826;9.238;2022-08-05T13:49:09;35.40;14.50
49861;DHT22;35761;48.826;9.238;2022-08-05T13:51:39;35.60;14.50
49861;DHT22;35761;48.826;9.238;2022-08-05T13:54:13;35.80;14.20
49861;DHT22;35761;48.826;9.238;2022-08-05T13:56:48;35.90;14.00
49861;DHT22;35761;48.826;9.238;2022-08-05T13:59:18;35.80;13.80
49861;DHT22;35761;48.826;9.238;2022-08-05T14:01:52;35.70;13.60
49861;DHT22;35761;48.826;9.238;2022-08-05T14:04:26;35.60;13.90
49861;DHT22;35761;48.826;9.238;2022-08-05T14:07:19;35.50;14.30
49861;DHT22;35761;48.826;9.238;2022-08-05T14:10:10;35.40;13.90
49861;DHT22;35761;48.826;9.238;2022-08-05T14:12:46;35.20;14.30
49861;DHT22;35761;48.826;9.238;2022-08-05T14:15:20;35.20;14.70
49861;DHT22;35761;48.826;9.238;2022-08-05T14:18:09;35.30;14.70
49861;DHT22;35761;48.826;9.238;2022-08-05T14:20:45;35.30;14.40
49861;DHT22;35761;48.826;9.238;2022-08-05T14:23:15;35.20;14.60
49861;DHT22;35761;48.826;9.238;2022-08-05T14:25:52;35.10;14.60
49861;DHT22;35761;48.826;9.238;2022-08-05T14:28:26;35.00;14.80
49861;DHT22;35761;48.826;9.238;2022-08-05T14:30:55;34.80;14.50
49861;DHT22;35761;48.826;9.238;2022-08-05T14:33:24;34.70;14.80
49861;DHT22;35761;48.826;9.238;2022-08-05T14:35:52;34.60;14.90
49861;DHT22;35761;48.826;9.238;2022-08-05T14:38:22;34.40;14.90
49861;DHT22;35761;48.826;9.238;2022-08-05T14:41:02;34.30;15.20
49861;DHT22;35761;48.826;9.238;2022-08-05T14:43:35;34.20;15.30
49861;DHT22;35761;48.826;9.238;2022-08-05T14:46:25;34.10;15.60
49861;DHT22;35761;48.826;9.238;2022-08-05T14:48:56;34.10;15.70
49861;DHT22;35761;48.826;9.238;2022-08-05T14:51:34;33.90;15.90
49861;DHT22;35761;48.826;9.238;2022-08-05T14:54:04;33.80;16.50
49861;DHT22;35761;48.826;9.238;2022-08-05T14:56:53;33.60;17.10
49861;DHT22;35761;48.826;9.238;2022-08-05T14:59:23;33.60;17.20
49861;DHT22;35761;48.826;9.238;2022-08-05T15:02:01;33.50;17.30
49861;DHT22;35761;48.826;9.238;2022-08-05T15:04:41;33.50;17.30
49861;DHT22;35761;48.826;9.238;2022-08-05T15:07:14;33.30;17.60
49861;DHT22;35761;48.826;9.238;2022-08-05T15:10:03;33.20;17.70
49861;DHT22;35761;48.826;9.238;2022-08-05T15:12:36;33.10;18.00
49861;DHT22;35761;48.826;9.238;2022-08-05T15:15:26;33.10;18.70
49861;DHT22;35761;48.826;9.238;2022-08-05T15:18:15;33.10;19.10
49861;DHT22;35761;48.826;9.238;2022-08-05T15:20:43;32.90;19.10
49861;DHT22;35761;48.826;9.238;2022-08-05T15:23:12;32.80;19.20
49861;DHT22;35761;48.826;9.238;2022-08-05T15:25:42;32.70;19.60
49861;DHT22;35761;48.826;9.238;2022-08-05T15:28:21;32.80;19.70
49861;DHT22;35761;48.826;9.238;2022-08-05T15:30:55;32.80;23.10
49861;DHT22;35761;48.826;9.238;2022-08-05T15:33:24;32.90;24.10
49861;DHT22;35761;48.826;9.238;2022-08-05T15:36:13;33.10;25.00
49861;DHT22;35761;48.826;9.238;2022-08-05T15:38:49;33.10;26.20
49861;DHT22;35761;48.826;9.238;2022-08-05T15:41:38;33.30;25.40
49861;DHT22;35761;48.826;9.238;2022-08-05T15:44:22;33.60;24.60
49861;DHT22;35761;48.826;9.238;2022-08-05T15:46:54;33.50;23.20
49861;DHT22;35761;48.826;9.238;2022-08-05T15:49:23;33.60;23.30
49861;DHT22;35761;48.826;9.238;2022-08-05T15:52:12;33.70;23.00
49861;DHT22;35761;48.826;9.238;2022-08-05T15:55:00;33.90;22.00
49861;DHT22;35761;48.826;9.238;2022-08-05T15:57:29;34.10;24.00
49861;DHT22;35761;48.826;9.238;2022-08-05T16:00:00;34.30;21.50
49861;DHT22;35761;48.826;9.238;2022-08-05T16:02:32;34.30;19.90
49861;DHT22;35761;48.826;9.238;2022-08-05T16:05:00;34.30;19.80
49861;DHT22;35761;48.826;9.238;2022-08-05T16:07:31;34.30;19.20
49861;DHT22;35761;48.826;9.238;2022-08-05T16:10:01;34.30;19.80
49861;DHT22;35761;48.826;9.238;2022-08-05T16:12:30;34.30;20.00
49861;DHT22;35761;48.826;9.238;2022-08-05T16:14:59;34.50;19.70
49861;DHT22;35761;48.826;9.238;2022-08-05T16:17:28;34.50;19.20
49861;DHT22;35761;48.826;9.238;2022-08-05T16:20:00;34.40;19.40
49861;DHT22;35761;48.826;9.238;2022-08-05T16:22:38;34.40;19.40
49861;DHT22;35761;48.826;9.238;2022-08-05T16:25:07;34.40;19.50
49861;DHT22;35761;48.826;9.238;2022-08-05T16:27:37;34.50;19.40
49861;DHT22;35761;48.826;9.238;2022-08-05T16:30:26;34.60;18.60
49861;DHT22;35761;48.826;9.238;2022-08-05T16:32:58;34.50;18.60
49861;DHT22;35761;48.826;9.238;2022-08-05T16:35:29;34.50;18.80
49861;DHT22;35761;48.826;9.238;2022-08-05T16:38:00;34.40;18.60
49861;DHT22;35761;48.826;9.238;2022-08-05T16:40:49;34.40;18.80
49861;DHT22;35761;48.826;9.238;2022-08-05T16:43:22;34.30;18.70